createdAt,value
2023-02-11T00:00:56.092Z,96.56
2023-02-11T00:01:56.162Z,96.66
2023-02-11T00:02:56.212Z,96.66
2023-02-11T00:03:56.145Z,96.62
2023-02-11T00:04:56.160Z,96.51
2023-02-11T00:05:56.164Z,96.51
2023-02-11T00:06:56.184Z,96.51
2023-02-11T00:07:56.197Z,96.51
2023-02-11T00:08:56.250Z,96.45
2023-02-11T00:09:56.253Z,96.24
2023-02-11T00:10:56.251Z,96.24
2023-02-11T00:12:02.273Z,96.24
2023-02-11T00:12:56.271Z,96.24
2023-02-11T00:13:56.293Z,96.45
2023-02-11T00:14:56.320Z,96.34
2023-02-11T00:15:56.326Z,96.45
2023-02-11T00:16:56.423Z,96.45
2023-02-11T00:17:56.359Z,96.45
2023-02-11T00:18:56.373Z,96.50
2023-02-11T00:19:56.409Z,96.60
2023-02-11T00:20:56.408Z,96.71
2023-02-11T00:21:56.426Z,96.92
2023-02-11T00:22:56.446Z,97.13
2023-02-11T00:23:56.458Z,97.45
2023-02-11T00:24:56.491Z,97.72
2023-02-11T00:25:56.493Z,97.51
2023-02-11T00:26:56.508Z,96.88
2023-02-11T00:27:56.537Z,96.50
2023-02-11T00:28:56.540Z,96.50
2023-02-11T00:29:56.586Z,96.50
2023-02-11T00:30:56.688Z,96.60
2023-02-11T00:31:56.713Z,96.71
2023-02-11T00:32:56.592Z,96.60
2023-02-11T00:33:56.605Z,96.60
2023-02-11T00:34:56.634Z,96.50
2023-02-11T00:35:56.634Z,96.50
2023-02-11T00:36:56.648Z,96.50
2023-02-11T00:37:56.676Z,96.81
2023-02-11T00:38:56.687Z,96.92
2023-02-11T00:39:56.717Z,97.24
2023-02-11T00:40:56.706Z,97.03
2023-02-11T00:41:56.723Z,96.71
2023-02-11T00:42:56.747Z,96.28
2023-02-11T00:43:56.768Z,96.28
2023-02-11T00:44:56.788Z,96.60
2023-02-11T00:45:56.866Z,96.92
2023-02-11T00:46:56.798Z,96.92
2023-02-11T00:47:56.831Z,96.86
2023-02-11T00:48:56.830Z,97.17
2023-02-11T00:49:56.865Z,97.28
2023-02-11T00:50:56.864Z,97.49
2023-02-11T00:51:56.885Z,97.60
2023-02-11T00:52:56.893Z,97.66
2023-02-11T00:53:56.914Z,97.77
2023-02-11T00:54:56.942Z,97.98
2023-02-11T00:55:56.945Z,98.30
2023-02-11T00:56:56.957Z,98.14
2023-02-11T00:57:56.976Z,97.83
2023-02-11T00:58:56.988Z,97.51
2023-02-11T00:59:57.032Z,96.98
2023-02-11T01:00:57.046Z,96.34
2023-02-11T01:01:57.044Z,95.92
2023-02-11T01:02:57.049Z,95.97
2023-02-11T01:03:57.072Z,96.39
2023-02-11T01:04:57.126Z,96.81
2023-02-11T01:05:57.098Z,97.24
2023-02-11T01:06:57.109Z,97.24
2023-02-11T01:07:57.124Z,97.24
2023-02-11T01:08:57.144Z,97.24
2023-02-11T01:09:57.182Z,97.24
2023-02-11T01:10:57.185Z,97.28
2023-02-11T01:11:57.187Z,97.45
2023-02-11T01:12:57.205Z,97.55
2023-02-11T01:13:57.217Z,97.87
2023-02-11T01:14:57.254Z,98.08
2023-02-11T01:15:57.366Z,97.98
2023-02-11T01:16:57.268Z,97.66
2023-02-11T01:17:57.280Z,97.24
2023-02-11T01:18:57.300Z,97.03
2023-02-11T01:19:57.329Z,96.96
2023-02-11T01:20:57.329Z,96.86
2023-02-11T01:21:57.380Z,96.96
2023-02-11T01:22:57.423Z,97.07
2023-02-11T01:23:57.377Z,96.96
2023-02-11T01:24:57.417Z,96.75
2023-02-11T01:25:57.409Z,96.64
2023-02-11T01:26:57.431Z,96.75
2023-02-11T01:27:57.500Z,97.24
2023-02-11T01:28:57.455Z,97.24
2023-02-11T01:29:57.487Z,96.96
2023-02-11T01:30:57.512Z,96.54
2023-02-11T01:31:57.642Z,96.44
2023-02-11T01:32:57.516Z,96.86
2023-02-11T01:33:57.528Z,97.28
2023-02-11T01:34:57.569Z,97.39
2023-02-11T01:35:57.567Z,97.39
2023-02-11T01:36:57.585Z,97.49
2023-02-11T01:37:57.600Z,97.60
2023-02-11T01:38:57.627Z,97.60
2023-02-11T01:39:57.646Z,97.49
2023-02-11T01:40:57.647Z,97.49
2023-02-11T01:41:57.659Z,97.91
2023-02-11T01:42:57.685Z,97.91
2023-02-11T01:43:57.693Z,97.81
2023-02-11T01:44:57.731Z,97.71
2023-02-11T01:45:57.721Z,97.17
2023-02-11T01:46:57.733Z,97.17
2023-02-11T01:47:57.747Z,97.28
2023-02-11T01:48:57.838Z,97.49
2023-02-11T01:49:57.809Z,97.71
2023-02-11T01:50:57.799Z,97.71
2023-02-11T01:51:57.826Z,97.81
2023-02-11T01:52:57.834Z,98.02
2023-02-11T01:53:57.857Z,98.13
2023-02-11T01:54:57.884Z,98.24
2023-02-11T01:55:57.877Z,98.55
2023-02-11T01:56:57.894Z,98.76
2023-02-11T01:57:57.912Z,98.55
2023-02-11T01:58:57.923Z,98.24
2023-02-11T01:59:57.955Z,97.91
2023-02-11T02:00:57.966Z,97.49
2023-02-11T02:01:58.042Z,97.17
2023-02-11T02:02:57.989Z,97.22
2023-02-11T02:03:58.067Z,97.33
2023-02-11T02:04:58.041Z,97.64
2023-02-11T02:05:58.035Z,97.85
2023-02-11T02:06:58.053Z,97.96
2023-02-11T02:07:58.067Z,98.28
2023-02-11T02:08:58.090Z,98.70
2023-02-11T02:09:58.118Z,99.19
2023-02-11T02:10:58.119Z,99.29
2023-02-11T02:11:58.131Z,99.08
2023-02-11T02:12:58.155Z,98.66
2023-02-11T02:13:58.162Z,98.24
2023-02-11T02:14:58.198Z,97.91
2023-02-11T02:15:58.250Z,97.71
2023-02-11T02:16:58.208Z,97.28
2023-02-11T02:17:58.284Z,97.07
2023-02-11T02:18:58.239Z,97.07
2023-02-11T02:19:58.278Z,97.17
2023-02-11T02:20:58.278Z,97.17
2023-02-11T02:21:58.293Z,97.01
2023-02-11T02:22:58.305Z,96.90
2023-02-11T02:23:58.319Z,96.80
2023-02-11T02:24:58.363Z,96.80
2023-02-11T02:25:58.352Z,97.01
2023-02-11T02:26:58.373Z,97.33
2023-02-11T02:27:58.430Z,97.58
2023-02-11T02:28:58.395Z,97.79
2023-02-11T02:29:58.432Z,97.90
2023-02-11T02:30:58.507Z,98.00
2023-02-11T02:31:58.445Z,98.22
2023-02-11T02:32:58.464Z,98.60
2023-02-11T02:33:58.486Z,98.70
2023-02-11T02:34:58.517Z,98.60
2023-02-11T02:35:58.523Z,98.49
2023-02-11T02:36:58.533Z,98.07
2023-02-11T02:37:58.556Z,97.75
2023-02-11T02:38:58.564Z,97.53
2023-02-11T02:39:58.596Z,97.47
2023-02-11T02:40:58.597Z,97.79
2023-02-11T02:41:58.616Z,98.11
2023-02-11T02:42:58.634Z,98.32
2023-02-11T02:43:58.645Z,98.43
2023-02-11T02:44:58.688Z,98.43
2023-02-11T02:45:58.681Z,98.32
2023-02-11T02:46:58.761Z,98.22
2023-02-11T02:47:58.713Z,98.11
2023-02-11T02:48:58.741Z,98.00
2023-02-11T02:49:58.766Z,97.90
2023-02-11T02:50:58.765Z,97.79
2023-02-11T02:51:58.781Z,97.69
2023-02-11T02:52:58.797Z,97.58
2023-02-11T02:53:58.814Z,98.00
2023-02-11T02:54:58.859Z,98.43
2023-02-11T02:55:58.845Z,98.60
2023-02-11T02:56:58.863Z,98.60
2023-02-11T02:57:58.876Z,98.28
2023-02-11T02:58:58.896Z,97.75
2023-02-11T02:59:58.986Z,97.37
2023-02-11T03:00:59.012Z,97.37
2023-02-11T03:01:58.949Z,97.37
2023-02-11T03:02:58.967Z,97.37
2023-02-11T03:03:59.037Z,97.79
2023-02-11T03:04:59.022Z,98.05
2023-02-11T03:05:59.008Z,98.26
2023-02-11T03:06:59.030Z,98.36
2023-02-11T03:07:59.042Z,98.58
2023-02-11T03:08:59.063Z,98.96
2023-02-11T03:09:59.100Z,99.17
2023-02-11T03:10:59.105Z,99.13
2023-02-11T03:11:59.110Z,98.91
2023-02-11T03:12:59.134Z,98.81
2023-02-11T03:13:59.147Z,98.60
2023-02-11T03:14:59.192Z,98.34
2023-02-11T03:15:59.198Z,98.02
2023-02-11T03:16:59.213Z,97.60
2023-02-11T03:17:59.201Z,97.01
2023-02-11T03:18:59.220Z,97.01
2023-02-11T03:19:59.254Z,97.22
2023-02-11T03:20:59.258Z,97.33
2023-02-11T03:21:59.266Z,97.22
2023-02-11T03:22:59.282Z,97.11
2023-02-11T03:23:59.294Z,96.80
2023-02-11T03:24:59.335Z,96.84
2023-02-11T03:25:59.324Z,97.05
2023-02-11T03:26:59.343Z,97.26
2023-02-11T03:27:59.411Z,97.85
2023-02-11T03:28:59.369Z,98.17
2023-02-11T03:29:59.416Z,98.38
2023-02-11T03:30:59.460Z,98.38
2023-02-11T03:31:59.486Z,98.07
2023-02-11T03:32:59.445Z,97.43
2023-02-11T03:33:59.451Z,97.22
2023-02-11T03:34:59.500Z,97.22
2023-02-11T03:35:59.483Z,97.33
2023-02-11T03:36:59.509Z,97.43
2023-02-11T03:37:59.511Z,97.43
2023-02-11T03:38:59.531Z,97.43
2023-02-11T03:39:59.573Z,97.33
2023-02-11T03:40:59.564Z,97.33
2023-02-11T03:41:59.579Z,97.53
2023-02-11T03:42:59.601Z,97.85
2023-02-11T03:43:59.617Z,98.07
2023-02-11T03:44:59.667Z,98.07
2023-02-11T03:45:59.733Z,98.07
2023-02-11T03:46:59.658Z,98.17
2023-02-11T03:47:59.665Z,98.49
2023-02-11T03:48:59.685Z,99.02
2023-02-11T03:49:59.744Z,99.29
2023-02-11T03:50:59.722Z,99.51
2023-02-11T03:51:59.730Z,99.35
2023-02-11T03:52:59.755Z,99.14
2023-02-11T03:53:59.760Z,98.93
2023-02-11T03:54:59.816Z,98.68
2023-02-11T03:55:59.800Z,98.57
2023-02-11T03:56:59.825Z,98.04
2023-02-11T03:57:59.821Z,97.41
2023-02-11T03:58:59.843Z,97.24
2023-02-11T03:59:59.879Z,97.34
2023-02-11T04:00:59.885Z,97.34
2023-02-11T04:01:59.885Z,97.45
2023-02-11T04:02:59.956Z,97.55
2023-02-11T04:03:59.917Z,97.66
2023-02-11T04:04:59.980Z,97.77
2023-02-11T04:05:59.963Z,97.98
2023-02-11T04:06:59.963Z,98.08
2023-02-11T04:07:59.981Z,98.08
2023-02-11T04:08:59.996Z,97.98
2023-02-11T04:10:00.045Z,97.91
2023-02-11T04:11:00.032Z,97.98
2023-02-11T04:12:00.056Z,97.98
2023-02-11T04:13:00.059Z,98.08
2023-02-11T04:14:00.128Z,98.19
2023-02-11T04:15:00.161Z,98.40
2023-02-11T04:16:00.228Z,98.46
2023-02-11T04:17:00.142Z,98.36
2023-02-11T04:18:00.157Z,98.57
2023-02-11T04:19:00.160Z,98.68
2023-02-11T04:20:00.205Z,98.68
2023-02-11T04:21:00.198Z,98.68
2023-02-11T04:22:00.220Z,98.78
2023-02-11T04:23:00.226Z,98.99
2023-02-11T04:24:00.276Z,99.10
2023-02-11T04:25:00.291Z,98.99
2023-02-11T04:26:00.280Z,98.88
2023-02-11T04:27:00.295Z,98.78
2023-02-11T04:28:00.375Z,98.68
2023-02-11T04:29:00.336Z,98.74
2023-02-11T04:30:00.384Z,98.94
2023-02-11T04:31:00.470Z,98.94
2023-02-11T04:32:00.444Z,99.11
2023-02-11T04:33:00.389Z,98.80
2023-02-11T04:34:00.403Z,98.37
2023-02-11T04:35:00.445Z,97.95
2023-02-11T04:36:00.431Z,97.74
2023-02-11T04:37:00.452Z,97.74
2023-02-11T04:38:00.486Z,97.63
2023-02-11T04:39:00.486Z,97.74
2023-02-11T04:40:00.550Z,97.74
2023-02-11T04:41:00.541Z,97.85
2023-02-11T04:42:00.536Z,97.85
2023-02-11T04:43:00.542Z,98.06
2023-02-11T04:44:00.558Z,98.27
2023-02-11T04:45:00.602Z,98.48
2023-02-11T04:46:00.614Z,98.69
2023-02-11T04:47:00.606Z,98.80
2023-02-11T04:48:00.617Z,98.90
2023-02-11T04:49:00.645Z,98.90
2023-02-11T04:50:00.672Z,98.80
2023-02-11T04:51:00.667Z,98.69
2023-02-11T04:52:00.682Z,98.69
2023-02-11T04:53:00.710Z,98.80
2023-02-11T04:54:00.721Z,98.80
2023-02-11T04:55:00.770Z,98.90
2023-02-11T04:56:00.737Z,99.01
2023-02-11T04:57:00.759Z,99.18
2023-02-11T04:58:00.782Z,99.18
2023-02-11T04:59:00.789Z,99.38
2023-02-11T05:00:00.828Z,99.60
2023-02-11T05:01:00.875Z,99.80
2023-02-11T05:02:00.843Z,99.76
2023-02-11T05:03:00.862Z,99.76
2023-02-11T05:04:00.907Z,99.66
2023-02-11T05:05:00.927Z,99.55
2023-02-11T05:06:00.904Z,99.44
2023-02-11T05:07:00.937Z,99.34
2023-02-11T05:08:00.938Z,99.24
2023-02-11T05:09:00.960Z,99.13
2023-02-11T05:10:00.990Z,99.34
2023-02-11T05:11:00.990Z,99.44
2023-02-11T05:12:01.019Z,99.40
2023-02-11T05:13:01.027Z,99.40
2023-02-11T05:14:01.033Z,99.61
2023-02-11T05:15:01.077Z,99.46
2023-02-11T05:16:01.060Z,98.93
2023-02-11T05:17:01.131Z,98.61
2023-02-11T05:18:01.090Z,98.51
2023-02-11T05:19:01.135Z,98.41
2023-02-11T05:20:01.137Z,98.30
2023-02-11T05:21:01.142Z,98.30
2023-02-11T05:22:03.426Z,98.30
2023-02-11T05:23:01.178Z,98.41
2023-02-11T05:24:01.195Z,98.30
2023-02-11T05:25:01.225Z,98.30
2023-02-11T05:26:01.216Z,98.30
2023-02-11T05:27:01.236Z,98.36
2023-02-11T05:28:01.280Z,98.47
2023-02-11T05:29:01.269Z,98.47
2023-02-11T05:30:01.308Z,98.47
2023-02-11T05:31:01.361Z,98.47
2023-02-11T05:32:01.318Z,98.47
2023-02-11T05:33:01.323Z,98.47
2023-02-11T05:34:01.341Z,98.47
2023-02-11T05:35:01.397Z,98.47
2023-02-11T05:36:01.377Z,98.47
2023-02-11T05:37:01.434Z,98.36
2023-02-11T05:38:01.405Z,98.36
2023-02-11T05:39:01.419Z,98.68
2023-02-11T05:40:01.529Z,99.31
2023-02-11T05:41:01.448Z,99.90
2023-02-11T05:42:01.475Z,99.99
2023-02-11T05:43:01.488Z,99.99
2023-02-11T05:44:01.500Z,99.99
2023-02-11T05:45:01.548Z,99.99
2023-02-11T05:46:01.637Z,99.99
2023-02-11T05:47:01.561Z,99.99
2023-02-11T05:48:01.555Z,99.99
2023-02-11T05:49:01.568Z,99.99
2023-02-11T05:50:01.676Z,99.99
2023-02-11T05:51:01.597Z,99.99
2023-02-11T05:52:01.621Z,99.91
2023-02-11T05:53:01.643Z,99.81
2023-02-11T05:54:01.663Z,99.81
2023-02-11T05:55:01.701Z,99.81
2023-02-11T05:56:01.683Z,99.91
2023-02-11T05:57:01.695Z,99.91
2023-02-11T05:58:01.717Z,99.91
2023-02-11T05:59:01.729Z,99.99
2023-02-11T06:00:01.772Z,99.99
2023-02-11T06:01:01.761Z,99.91
2023-02-11T06:02:01.774Z,99.76
2023-02-11T06:03:01.786Z,99.66
2023-02-11T06:04:01.846Z,99.55
2023-02-11T06:05:01.843Z,99.66
2023-02-11T06:06:01.838Z,99.66
2023-02-11T06:07:01.850Z,99.66
2023-02-11T06:08:01.874Z,99.55
2023-02-11T06:09:01.902Z,99.44
2023-02-11T06:10:01.923Z,99.24
2023-02-11T06:11:01.910Z,99.24
2023-02-11T06:12:01.931Z,99.13
2023-02-11T06:13:01.945Z,99.13
2023-02-11T06:14:01.969Z,99.13
2023-02-11T06:15:02.014Z,99.02
2023-02-11T06:16:02.122Z,98.82
2023-02-11T06:17:02.008Z,98.39
2023-02-11T06:18:02.032Z,98.14
2023-02-11T06:19:02.047Z,97.93
2023-02-11T06:20:02.096Z,97.51
2023-02-11T06:21:02.068Z,96.98
2023-02-11T06:22:02.087Z,96.67
2023-02-11T06:23:02.099Z,96.67
2023-02-11T06:24:02.115Z,96.67
2023-02-11T06:25:02.456Z,96.77
2023-02-11T06:26:02.153Z,96.88
2023-02-11T06:27:02.155Z,96.98
2023-02-11T06:28:02.251Z,96.88
2023-02-11T06:29:02.198Z,96.98
2023-02-11T06:30:02.251Z,96.88
2023-02-11T06:31:02.344Z,96.77
2023-02-11T06:32:02.378Z,96.56
2023-02-11T06:33:02.263Z,96.25
2023-02-11T06:34:02.309Z,96.14
2023-02-11T06:35:02.321Z,96.14
2023-02-11T06:36:02.321Z,95.93
2023-02-11T06:37:02.320Z,95.83
2023-02-11T06:38:02.343Z,95.78
2023-02-11T06:39:02.362Z,95.68
2023-02-11T06:40:02.435Z,95.47
2023-02-11T06:41:02.391Z,95.26
2023-02-11T06:42:02.530Z,94.94
2023-02-11T06:43:02.421Z,95.15
2023-02-11T06:44:02.443Z,95.26
2023-02-11T06:45:02.484Z,95.04
2023-02-11T06:46:02.477Z,94.62
2023-02-11T06:47:02.489Z,94.52
2023-02-11T06:48:02.509Z,94.62
2023-02-11T06:49:02.518Z,94.37
2023-02-11T06:50:02.556Z,94.17
2023-02-11T06:51:02.545Z,93.95
2023-02-11T06:52:02.561Z,93.95
2023-02-11T06:53:02.577Z,94.06
2023-02-11T06:54:02.597Z,94.06
2023-02-11T06:55:02.636Z,94.17
2023-02-11T06:56:02.635Z,94.37
2023-02-11T06:57:02.640Z,94.79
2023-02-11T06:58:02.659Z,95.00
2023-02-11T06:59:02.673Z,94.90
2023-02-11T07:00:02.819Z,94.69
2023-02-11T07:01:02.698Z,94.58
2023-02-11T07:02:02.803Z,94.58
2023-02-11T07:03:02.906Z,94.58
2023-02-11T07:04:02.751Z,94.58
2023-02-11T07:05:02.808Z,94.17
2023-02-11T07:06:02.794Z,93.59
2023-02-11T07:07:02.802Z,93.07
2023-02-11T07:08:02.826Z,92.76
2023-02-11T07:09:02.836Z,92.96
2023-02-11T07:10:02.883Z,93.28
2023-02-11T07:11:02.873Z,93.38
2023-02-11T07:12:02.889Z,93.49
2023-02-11T07:13:02.900Z,93.59
2023-02-11T07:14:02.918Z,93.18
2023-02-11T07:15:02.959Z,93.07
2023-02-11T07:16:02.983Z,93.13
2023-02-11T07:17:02.973Z,93.02
2023-02-11T07:18:02.983Z,92.82
2023-02-11T07:19:03.006Z,92.71
2023-02-11T07:20:03.074Z,92.82
2023-02-11T07:21:03.032Z,93.02
2023-02-11T07:22:03.047Z,92.82
2023-02-11T07:23:03.065Z,92.88
2023-02-11T07:24:03.084Z,92.88
2023-02-11T07:25:03.138Z,92.77
2023-02-11T07:26:03.125Z,92.67
2023-02-11T07:27:03.134Z,92.25
2023-02-11T07:28:03.210Z,92.04
2023-02-11T07:29:03.163Z,91.83
2023-02-11T07:30:04.931Z,91.83
2023-02-11T07:31:03.309Z,91.62
2023-02-11T07:32:03.367Z,90.47
2023-02-11T07:33:03.222Z,90.00
2023-02-11T07:34:03.255Z,90.11
2023-02-11T07:35:03.323Z,90.22
2023-02-11T07:36:03.271Z,90.59
2023-02-11T07:37:03.281Z,90.49
2023-02-11T07:38:03.309Z,89.23
2023-02-11T07:39:03.310Z,89.12
2023-02-11T07:40:03.353Z,89.54
2023-02-11T07:41:03.341Z,89.61
2023-02-11T07:42:03.364Z,89.92
2023-02-11T07:43:03.366Z,89.61
2023-02-11T07:44:03.387Z,89.29
2023-02-11T07:45:03.433Z,89.09
2023-02-11T07:46:03.410Z,89.04
2023-02-11T07:47:03.456Z,88.73
2023-02-11T07:48:03.445Z,88.42
2023-02-11T07:49:03.450Z,88.10
2023-02-11T07:50:03.495Z,87.37
2023-02-11T07:51:03.479Z,87.68
2023-02-11T07:52:03.505Z,88.10
2023-02-11T07:53:03.518Z,88.21
2023-02-11T07:54:03.536Z,88.42
2023-02-11T07:55:04.951Z,88.73
2023-02-11T07:56:03.562Z,89.04
2023-02-11T07:57:03.574Z,88.62
2023-02-11T07:58:03.592Z,88.94
2023-02-11T07:59:03.609Z,88.84
2023-02-11T08:00:03.649Z,88.21
2023-02-11T08:01:03.711Z,88.42
2023-02-11T08:02:03.716Z,87.99
2023-02-11T08:03:03.662Z,87.01
2023-02-11T08:04:03.695Z,87.33
2023-02-11T08:05:03.722Z,87.12
2023-02-11T08:06:03.708Z,87.12
2023-02-11T08:07:03.716Z,86.38
2023-02-11T08:08:03.744Z,86.28
2023-02-11T08:09:03.766Z,86.60
2023-02-11T08:10:03.808Z,86.38
2023-02-11T08:11:03.793Z,86.38
2023-02-11T08:12:03.815Z,86.98
2023-02-11T08:13:03.836Z,85.82
2023-02-11T08:14:03.877Z,86.35
2023-02-11T08:15:03.915Z,86.55
2023-02-11T08:16:03.941Z,86.45
2023-02-11T08:17:03.903Z,85.72
2023-02-11T08:18:03.928Z,85.78
2023-02-11T08:19:03.942Z,85.68
2023-02-11T08:20:03.992Z,85.78
2023-02-11T08:21:03.972Z,85.47
2023-02-11T08:22:03.995Z,84.63
2023-02-11T08:23:04.012Z,84.63
2023-02-11T08:24:04.048Z,85.05
2023-02-11T08:25:04.072Z,85.12
2023-02-11T08:26:04.075Z,85.33
2023-02-11T08:27:04.096Z,85.12
2023-02-11T08:28:04.159Z,84.91
2023-02-11T08:29:04.126Z,84.45
2023-02-11T08:30:04.182Z,83.93
2023-02-11T08:31:04.184Z,84.24
2023-02-11T08:32:04.235Z,84.52
2023-02-11T08:33:04.194Z,84.52
2023-02-11T08:34:04.217Z,83.89
2023-02-11T08:35:04.266Z,83.37
2023-02-11T08:36:04.247Z,83.37
2023-02-11T08:37:04.258Z,82.95
2023-02-11T08:38:04.281Z,82.84
2023-02-11T08:39:20.611Z,83.16
2023-02-11T08:40:04.354Z,83.12
2023-02-11T08:41:04.327Z,83.01
2023-02-11T08:42:04.354Z,82.60
2023-02-11T08:43:06.960Z,82.50
2023-02-11T08:44:04.386Z,82.91
2023-02-11T08:45:04.425Z,82.91
2023-02-11T08:46:04.463Z,83.54
2023-02-11T08:47:04.439Z,83.12
2023-02-11T08:48:04.463Z,83.23
2023-02-11T08:49:04.477Z,82.81
2023-02-11T08:50:04.515Z,81.97
2023-02-11T08:51:04.508Z,82.18
2023-02-11T08:52:04.535Z,83.12
2023-02-11T08:53:04.535Z,83.54
2023-02-11T08:54:04.570Z,83.85
2023-02-11T08:55:04.632Z,83.64
2023-02-11T08:56:04.593Z,83.64
2023-02-11T08:57:04.600Z,83.85
2023-02-11T08:58:04.622Z,83.23
2023-02-11T08:59:04.644Z,83.23
2023-02-11T09:00:04.741Z,82.91
2023-02-11T09:01:04.722Z,83.33
2023-02-11T09:02:04.768Z,83.54
2023-02-11T09:03:04.719Z,83.75
2023-02-11T09:04:04.738Z,83.33
2023-02-11T09:05:04.764Z,83.12
2023-02-11T09:06:04.774Z,82.81
2023-02-11T09:07:04.788Z,82.39
2023-02-11T09:08:04.795Z,82.91
2023-02-11T09:09:04.804Z,83.54
2023-02-11T09:10:04.846Z,83.33
2023-02-11T09:11:04.828Z,82.70
2023-02-11T09:12:04.849Z,82.29
2023-02-11T09:13:04.871Z,81.21
2023-02-11T09:14:04.896Z,80.79
2023-02-11T09:15:04.947Z,81.21
2023-02-11T09:16:04.934Z,81.73
2023-02-11T09:17:04.995Z,80.99
2023-02-11T09:18:04.969Z,81.52
2023-02-11T09:19:05.045Z,81.73
2023-02-11T09:20:05.035Z,81.69
2023-02-11T09:21:05.035Z,81.59
2023-02-11T09:22:05.060Z,81.79
2023-02-11T09:23:05.066Z,81.06
2023-02-11T09:24:05.089Z,80.75
2023-02-11T09:25:05.127Z,80.85
2023-02-11T09:26:07.490Z,80.23
2023-02-11T09:27:05.141Z,79.39
2023-02-11T09:28:05.195Z,80.09
2023-02-11T09:29:05.188Z,79.88
2023-02-11T09:30:05.226Z,80.09
2023-02-11T09:31:05.327Z,79.88
2023-02-11T09:32:07.878Z,79.98
2023-02-11T09:33:05.230Z,78.94
2023-02-11T09:34:05.253Z,79.15
2023-02-11T09:35:05.281Z,79.57
2023-02-11T09:36:05.277Z,79.15
2023-02-11T09:37:05.282Z,79.25
2023-02-11T09:38:05.302Z,79.25
2023-02-11T09:39:05.320Z,79.43
2023-02-11T09:40:05.363Z,79.32
2023-02-11T09:41:05.361Z,79.53
2023-02-11T09:42:05.378Z,79.53
2023-02-11T09:43:05.390Z,79.01
2023-02-11T09:44:05.398Z,78.80
2023-02-11T09:45:05.441Z,79.32
2023-02-11T09:46:05.485Z,79.11
2023-02-11T09:47:05.452Z,78.56
2023-02-11T09:48:06.456Z,79.39
2023-02-11T09:49:05.494Z,79.08
2023-02-11T09:50:05.545Z,78.66
2023-02-11T09:51:05.536Z,78.03
2023-02-11T09:52:05.541Z,78.00
2023-02-11T09:53:05.575Z,77.79
2023-02-11T09:54:05.753Z,77.44
2023-02-11T09:55:05.648Z,77.96
2023-02-11T09:56:05.630Z,77.86
2023-02-11T09:57:06.109Z,77.86
2023-02-11T09:58:05.659Z,77.72
2023-02-11T09:59:05.720Z,77.61
2023-02-11T10:00:05.720Z,77.61
2023-02-11T10:01:05.776Z,77.30
2023-02-11T10:02:05.734Z,77.30
2023-02-11T10:03:05.755Z,77.51
2023-02-11T10:04:05.889Z,77.51
2023-02-11T10:05:05.814Z,76.99
2023-02-11T10:06:05.806Z,76.72
2023-02-11T10:07:05.824Z,76.92
2023-02-11T10:08:05.843Z,76.68
2023-02-11T10:09:05.864Z,76.78
2023-02-11T10:10:05.910Z,77.20
2023-02-11T10:11:05.902Z,77.51
2023-02-11T10:12:05.917Z,77.20
2023-02-11T10:13:05.938Z,77.51
2023-02-11T10:14:05.952Z,77.83
2023-02-11T10:15:05.994Z,77.51
2023-02-11T10:16:06.069Z,77.51
2023-02-11T10:17:06.009Z,78.03
2023-02-11T10:18:06.018Z,78.03
2023-02-11T10:19:06.037Z,78.03
2023-02-11T10:20:06.084Z,77.93
2023-02-11T10:21:06.096Z,77.40
2023-02-11T10:22:06.104Z,76.99
2023-02-11T10:23:06.119Z,76.89
2023-02-11T10:24:06.128Z,76.85
2023-02-11T10:25:06.168Z,76.75
2023-02-11T10:26:06.167Z,76.64
2023-02-11T10:27:06.182Z,77.06
2023-02-11T10:28:06.232Z,76.54
2023-02-11T10:29:06.214Z,75.92
2023-02-11T10:30:06.503Z,75.98
2023-02-11T10:31:06.436Z,76.51
2023-02-11T10:32:06.303Z,76.51
2023-02-11T10:33:06.284Z,76.72
2023-02-11T10:34:06.304Z,76.92
2023-02-11T10:35:06.323Z,75.85
2023-02-11T10:36:06.358Z,76.16
2023-02-11T10:37:06.353Z,75.95
2023-02-11T10:38:06.372Z,75.95
2023-02-11T10:39:06.397Z,75.98
2023-02-11T10:40:06.451Z,75.78
2023-02-11T10:41:06.438Z,76.09
2023-02-11T10:42:06.452Z,76.40
2023-02-11T10:43:06.473Z,76.82
2023-02-11T10:44:06.493Z,76.61
2023-02-11T10:45:06.534Z,77.27
2023-02-11T10:46:06.627Z,76.85
2023-02-11T10:47:06.559Z,76.64
2023-02-11T10:48:06.567Z,76.85
2023-02-11T10:49:06.593Z,77.06
2023-02-11T10:50:06.625Z,77.34
2023-02-11T10:51:06.620Z,77.86
2023-02-11T10:52:06.631Z,76.92
2023-02-11T10:53:06.652Z,77.09
2023-02-11T10:54:06.674Z,76.78
2023-02-11T10:55:06.717Z,76.16
2023-02-11T10:56:06.704Z,76.06
2023-02-11T10:57:06.726Z,76.75
2023-02-11T10:58:06.758Z,76.02
2023-02-11T10:59:06.772Z,76.33
2023-02-11T11:00:06.814Z,75.71
2023-02-11T11:01:23.224Z,75.81
2023-02-11T11:02:06.926Z,75.98
2023-02-11T11:03:06.848Z,75.57
2023-02-11T11:04:06.853Z,75.46
2023-02-11T11:05:06.979Z,75.43
2023-02-11T11:06:06.897Z,75.64
2023-02-11T11:07:06.918Z,75.33
2023-02-11T11:08:06.939Z,75.33
2023-02-11T11:09:06.954Z,75.12
2023-02-11T11:10:07.022Z,74.60
2023-02-11T11:11:06.989Z,74.81
2023-02-11T11:12:07.003Z,75.12
2023-02-11T11:13:07.031Z,75.43
2023-02-11T11:14:07.053Z,75.19
2023-02-11T11:15:07.097Z,74.67
2023-02-11T11:16:07.105Z,74.11
2023-02-11T11:17:07.096Z,75.26
2023-02-11T11:18:20.605Z,74.32
2023-02-11T11:19:07.161Z,74.01
2023-02-11T11:20:07.202Z,74.98
2023-02-11T11:21:07.159Z,74.98
2023-02-11T11:22:07.176Z,74.26
2023-02-11T11:23:07.200Z,74.46
2023-02-11T11:24:07.210Z,74.88
2023-02-11T11:25:07.261Z,75.09
2023-02-11T11:26:07.256Z,74.91
2023-02-11T11:27:07.275Z,74.81
2023-02-11T11:28:07.311Z,74.81
2023-02-11T11:29:07.307Z,74.40
2023-02-11T11:30:07.345Z,75.02
2023-02-11T11:31:07.509Z,75.15
2023-02-11T11:32:07.420Z,75.23
2023-02-11T11:33:07.369Z,74.81
2023-02-11T11:34:07.385Z,74.67
2023-02-11T11:35:07.438Z,74.88
2023-02-11T11:36:07.421Z,74.11
2023-02-11T11:37:07.438Z,74.11
2023-02-11T11:38:07.443Z,73.67
2023-02-11T11:39:07.467Z,73.36
2023-02-11T11:40:07.500Z,72.74
2023-02-11T11:41:07.490Z,72.39
2023-02-11T11:42:07.518Z,72.91
2023-02-11T11:43:07.549Z,73.22
2023-02-11T11:44:07.566Z,72.39
2023-02-11T11:45:07.586Z,72.67
2023-02-11T11:46:07.573Z,73.50
2023-02-11T11:47:07.599Z,73.19
2023-02-11T11:48:07.617Z,72.60
2023-02-11T11:49:07.636Z,73.43
2023-02-11T11:50:07.670Z,73.94
2023-02-11T11:51:07.671Z,74.05
2023-02-11T11:52:07.675Z,74.81
2023-02-11T11:53:07.701Z,74.60
2023-02-11T11:54:07.716Z,75.22
2023-02-11T11:55:07.764Z,74.60
2023-02-11T11:56:07.758Z,74.08
2023-02-11T11:57:07.775Z,75.12
2023-02-11T11:58:07.810Z,74.60
2023-02-11T11:59:07.816Z,74.91
2023-02-11T12:00:07.882Z,74.60
2023-02-11T12:01:07.870Z,74.81
2023-02-11T12:02:08.673Z,75.32
2023-02-11T12:03:08.014Z,74.46
2023-02-11T12:04:07.930Z,74.26
2023-02-11T12:05:07.977Z,74.32
2023-02-11T12:06:07.934Z,74.63
2023-02-11T12:07:07.963Z,74.32
2023-02-11T12:08:07.971Z,73.81
2023-02-11T12:09:07.998Z,74.43
2023-02-11T12:10:08.042Z,74.12
2023-02-11T12:11:08.026Z,73.81
2023-02-11T12:12:08.049Z,74.22
2023-02-11T12:13:08.063Z,74.43
2023-02-11T12:14:08.071Z,73.91
2023-02-11T12:15:08.128Z,74.50
2023-02-11T12:16:08.165Z,73.77
2023-02-11T12:17:08.156Z,73.88
2023-02-11T12:18:08.165Z,73.57
2023-02-11T12:19:08.163Z,74.29
2023-02-11T12:20:08.202Z,73.43
2023-02-11T12:21:08.203Z,72.91
2023-02-11T12:22:08.223Z,73.08
2023-02-11T12:23:08.237Z,73.08
2023-02-11T12:24:08.254Z,72.78
2023-02-11T12:25:08.319Z,71.74
2023-02-11T12:26:08.296Z,71.50
2023-02-11T12:27:08.337Z,71.81
2023-02-11T12:28:08.416Z,70.47
2023-02-11T12:29:08.355Z,71.09
2023-02-11T12:30:08.402Z,72.12
2023-02-11T12:31:08.457Z,71.81
2023-02-11T12:32:08.494Z,71.40
2023-02-11T12:33:08.458Z,70.67
2023-02-11T12:34:08.445Z,71.61
2023-02-11T12:35:08.488Z,71.92
2023-02-11T12:36:08.509Z,71.06
2023-02-11T12:37:08.497Z,71.37
2023-02-11T12:38:08.532Z,71.47
2023-02-11T12:39:08.531Z,70.64
2023-02-11T12:40:08.564Z,71.26
2023-02-11T12:41:08.559Z,70.82
2023-02-11T12:42:08.613Z,70.30
2023-02-11T12:43:08.606Z,69.89
2023-02-11T12:44:08.607Z,68.93
2023-02-11T12:45:08.657Z,69.54
2023-02-11T12:46:08.748Z,69.44
2023-02-11T12:47:08.664Z,69.89
2023-02-11T12:48:08.696Z,69.27
2023-02-11T12:49:08.705Z,69.37
2023-02-11T12:50:08.748Z,69.06
2023-02-11T12:51:08.751Z,69.48
2023-02-11T12:52:08.755Z,69.48
2023-02-11T12:53:08.784Z,68.75